Ralph Wien Memorial Airport Kotzebue US
ICAO: PAOT
IATA:
Category: Medium
Scheduled Services:

Elevation: 14 ft
TransAlt. 18000 ft.

Airport Communications:
ASOS:135.45
ATIS:135.45
ANCHORAGE CNTR:119.2
CTAF:123.6
KOTZEBUE RDO:122.2
TWEB:115.7
UNICOM:122.8

PAOT Zoom In..

Runways:

(A) RW 09 length 5900 ft width 150 ft
ILS 110.70 / hdg 87

(B) RW 18 length 3876 ft width 90 ft
---- / hdg 179

(C) RW 27 length 5900 ft width 150 ft
---- / hdg 267

(D) RW 36 length 3876 ft width 90 ft
---- / hdg 359

Location; PAOT
Day. 14 / Time. 13.53 Zulu
* Altimeter: 29.74
* Temperature: 06° c. 42.8°f.
* Wind from: 360° Speed 15 kn.
Dewpoint: 01° c.
Visibility: 10 Statute Miles.
Clouds: Clear (automated report).

PAOT 141353Z AUTO 36015KT 10SM CLR 06/01 A2974 RMK AO2 SLP071 T00560006 TSNO


Wind From 360°
Speed 15 kn.

 
 
jpsmedia.com for Web Design worldairports.se 2018   terms of use